sensor_id;sensor_type;location;lat;lon;timestamp;pressure;altitude;pressure_sealevel;temperature;humidity
21877;BME280;11103;43.788;23.710;2023-02-20T00:02:22;149550.16;;;12.57;100.00
21877;BME280;11103;43.788;23.710;2023-02-20T00:04:48;149552.75;;;12.58;100.00
21877;BME280;11103;43.788;23.710;2023-02-20T00:07:13;149539.94;;;12.52;100.00
21877;BME280;11103;43.788;23.710;2023-02-20T00:09:39;149554.03;;;12.58;100.00
21877;BME280;11103;43.788;23.710;2023-02-20T00:12:04;149534.78;;;12.50;100.00
21877;BME280;11103;43.788;23.710;2023-02-20T00:14:29;149510.44;;;12.41;100.00
21877;BME280;11103;43.788;23.710;2023-02-20T00:16:55;149497.63;;;12.36;100.00
21877;BME280;11103;43.788;23.710;2023-02-20T00:19:20;149495.03;;;12.35;100.00
21877;BME280;11103;43.788;23.710;2023-02-20T00:21:47;149493.75;;;12.34;100.00
21877;BME280;11103;43.788;23.710;2023-02-20T00:24:13;149482.22;;;12.30;100.00
21877;BME280;11103;43.788;23.710;2023-02-20T00:26:47;149475.84;;;12.27;100.00
21877;BME280;11103;43.788;23.710;2023-02-20T00:29:18;149525.84;;;12.47;100.00
21877;BME280;11103;43.788;23.710;2023-02-20T00:31:55;149546.34;;;12.55;100.00
21877;BME280;11103;43.788;23.710;2023-02-20T00:34:23;149523.25;;;12.46;100.00
21877;BME280;11103;43.788;23.710;2023-02-20T00:36:49;149539.94;;;12.52;100.00
21877;BME280;11103;43.788;23.710;2023-02-20T00:39:14;149566.84;;;12.63;100.00
21877;BME280;11103;43.788;23.710;2023-02-20T00:41:40;149580.97;;;12.69;100.00
21877;BME280;11103;43.788;23.710;2023-02-20T00:44:06;149466.84;;;12.24;100.00
21877;BME280;11103;43.788;23.710;2023-02-20T00:46:31;149560.44;;;12.61;100.00
21877;BME280;11103;43.788;23.710;2023-02-20T00:48:57;149561.69;;;12.61;100.00
21877;BME280;11103;43.788;23.710;2023-02-20T00:51:22;149555.28;;;12.59;100.00
21877;BME280;11103;43.788;23.710;2023-02-20T00:53:47;149541.19;;;12.53;100.00
21877;BME280;11103;43.788;23.710;2023-02-20T00:56:13;149556.56;;;12.59;100.00
21877;BME280;11103;43.788;23.710;2023-02-20T00:58:38;149543.75;;;12.54;100.00
21877;BME280;11103;43.788;23.710;2023-02-20T01:01:04;149541.19;;;12.53;100.00
21877;BME280;11103;43.788;23.710;2023-02-20T01:03:30;149521.97;;;12.45;100.00
21877;BME280;11103;43.788;23.710;2023-02-20T01:05:55;149491.22;;;12.33;100.00
21877;BME280;11103;43.788;23.710;2023-02-20T01:08:21;149442.50;;;12.14;100.00
21877;BME280;11103;43.788;23.710;2023-02-20T01:10:46;149418.13;;;12.05;100.00
21877;BME280;11103;43.788;23.710;2023-02-20T01:13:11;149361.75;;;11.82;100.00
21877;BME280;11103;43.788;23.710;2023-02-20T01:15:37;149310.47;;;11.62;100.00
21877;BME280;11103;43.788;23.710;2023-02-20T01:18:02;149279.72;;;11.50;100.00
21877;BME280;11103;43.788;23.710;2023-02-20T01:20:30;149242.59;;;11.35;100.00
21877;BME280;11103;43.788;23.710;2023-02-20T01:22:55;149223.34;;;11.28;100.00
21877;BME280;11103;43.788;23.710;2023-02-20T01:25:20;149225.94;;;11.29;100.00
21877;BME280;11103;43.788;23.710;2023-02-20T01:27:46;149210.56;;;11.23;100.00
21877;BME280;11103;43.788;23.710;2023-02-20T01:30:11;149167.06;;;11.06;100.00
21877;BME280;11103;43.788;23.710;2023-02-20T01:32:37;149146.56;;;10.98;100.00
21877;BME280;11103;43.788;23.710;2023-02-20T01:35:02;149200.34;;;11.19;100.00
21877;BME280;11103;43.788;23.710;2023-02-20T01:37:28;149223.34;;;11.28;100.00
21877;BME280;11103;43.788;23.710;2023-02-20T01:39:53;149229.81;;;11.30;100.00
21877;BME280;11103;43.788;23.710;2023-02-20T01:42:24;149245.13;;;11.36;100.00
21877;BME280;11103;43.788;23.710;2023-02-20T01:44:51;149223.34;;;11.28;100.00
21877;BME280;11103;43.788;23.710;2023-02-20T01:47:19;149214.41;;;11.24;100.00
21877;BME280;11103;43.788;23.710;2023-02-20T01:54:50;149151.69;;;11.00;100.00
21877;BME280;11103;43.788;23.710;2023-02-20T01:57:20;149126.09;;;10.90;100.00
21877;BME280;11103;43.788;23.710;2023-02-20T01:59:46;149103.03;;;10.81;100.00
21877;BME280;11103;43.788;23.710;2023-02-20T02:02:14;149092.75;;;10.76;100.00
21877;BME280;11103;43.788;23.710;2023-02-20T02:04:40;149092.75;;;10.76;100.00
21877;BME280;11103;43.788;23.710;2023-02-20T02:07:07;149108.13;;;10.83;100.00
21877;BME280;11103;43.788;23.710;2023-02-20T02:09:41;149128.63;;;10.91;100.00
21877;BME280;11103;43.788;23.710;2023-02-20T02:12:08;149103.03;;;10.81;100.00
21877;BME280;11103;43.788;23.710;2023-02-20T02:14:34;149137.59;;;10.94;100.00
21877;BME280;11103;43.788;23.710;2023-02-20T02:17:16;149141.41;;;10.96;100.00
21877;BME280;11103;43.788;23.710;2023-02-20T02:20:16;149161.91;;;11.04;100.00
21877;BME280;11103;43.788;23.710;2023-02-20T02:36:58;149074.84;;;10.69;100.00
21877;BME280;11103;43.788;23.710;2023-02-20T02:40:01;149062.06;;;10.64;100.00
21877;BME280;11103;43.788;23.710;2023-02-20T02:48:06;149063.34;;;10.65;100.00
21877;BME280;11103;43.788;23.710;2023-02-20T02:50:37;149069.75;;;10.67;100.00
21877;BME280;11103;43.788;23.710;2023-02-20T02:53:07;149064.59;;;10.65;100.00
21877;BME280;11103;43.788;23.710;2023-02-20T02:55:33;149054.38;;;10.61;100.00
21877;BME280;11103;43.788;23.710;2023-02-20T02:58:00;149024.94;;;10.50;100.00
21877;BME280;11103;43.788;23.710;2023-02-20T03:03:18;149041.59;;;10.56;100.00
21877;BME280;11103;43.788;23.710;2023-02-20T03:06:17;149044.13;;;10.57;100.00
21877;BME280;11103;43.788;23.710;2023-02-20T03:08:53;149049.28;;;10.59;100.00
21877;BME280;11103;43.788;23.710;2023-02-20T03:11:24;149041.59;;;10.56;100.00
21877;BME280;11103;43.788;23.710;2023-02-20T03:16:57;149069.75;;;10.67;100.00
21877;BME280;11103;43.788;23.710;2023-02-20T03:19:31;149073.56;;;10.69;100.00
21877;BME280;11103;43.788;23.710;2023-02-20T03:21:58;149078.69;;;10.71;100.00
21877;BME280;11103;43.788;23.710;2023-02-20T03:24:26;149095.34;;;10.77;100.00
21877;BME280;11103;43.788;23.710;2023-02-20T03:26:55;149099.16;;;10.79;100.00
21877;BME280;11103;43.788;23.710;2023-02-20T03:29:25;149101.75;;;10.80;100.00
21877;BME280;11103;43.788;23.710;2023-02-20T03:32:00;149078.69;;;10.71;100.00
21877;BME280;11103;43.788;23.710;2023-02-20T03:34:47;149109.41;;;10.83;100.00
21877;BME280;11103;43.788;23.710;2023-02-20T03:37:34;149108.13;;;10.83;100.00
21877;BME280;11103;43.788;23.710;2023-02-20T03:40:21;149092.75;;;10.76;100.00
21877;BME280;11103;43.788;23.710;2023-02-20T03:43:11;149095.34;;;10.77;100.00
21877;BME280;11103;43.788;23.710;2023-02-20T03:45:56;149018.53;;;10.47;100.00
21877;BME280;11103;43.788;23.710;2023-02-20T03:48:34;149069.75;;;10.67;100.00
21877;BME280;11103;43.788;23.710;2023-02-20T03:51:02;149055.66;;;10.62;100.00
21877;BME280;11103;43.788;23.710;2023-02-20T03:53:40;149042.88;;;10.57;100.00
21877;BME280;11103;43.788;23.710;2023-02-20T03:56:10;149010.84;;;10.44;100.00
21877;BME280;11103;43.788;23.710;2023-02-20T03:58:41;149028.81;;;10.51;100.00
21877;BME280;11103;43.788;23.710;2023-02-20T04:01:10;149015.97;;;10.46;100.00
21877;BME280;11103;43.788;23.710;2023-02-20T04:03:41;148998.06;;;10.39;100.00
21877;BME280;11103;43.788;23.710;2023-02-20T04:06:10;148955.84;;;10.23;100.00
21877;BME280;11103;43.788;23.710;2023-02-20T04:08:41;148995.50;;;10.38;100.00
21877;BME280;11103;43.788;23.710;2023-02-20T04:11:13;148976.31;;;10.31;100.00
21877;BME280;11103;43.788;23.710;2023-02-20T04:13:40;148967.38;;;10.27;100.00
21877;BME280;11103;43.788;23.710;2023-02-20T04:16:06;148959.69;;;10.24;100.00
21877;BME280;11103;43.788;23.710;2023-02-20T04:18:32;148949.44;;;10.20;100.00
21877;BME280;11103;43.788;23.710;2023-02-20T04:21:00;148949.44;;;10.20;100.00
21877;BME280;11103;43.788;23.710;2023-02-20T04:23:30;148934.06;;;10.14;100.00
21877;BME280;11103;43.788;23.710;2023-02-20T04:26:03;148923.81;;;10.10;100.00
21877;BME280;11103;43.788;23.710;2023-02-20T04:28:30;148894.38;;;9.98;100.00
21877;BME280;11103;43.788;23.710;2023-02-20T04:30:56;148903.34;;;10.02;100.00
21877;BME280;11103;43.788;23.710;2023-02-20T04:33:22;148889.28;;;9.96;100.00
21877;BME280;11103;43.788;23.710;2023-02-20T04:35:47;148888.00;;;9.96;100.00
21877;BME280;11103;43.788;23.710;2023-02-20T04:38:13;148862.41;;;9.86;100.00
21877;BME280;11103;43.788;23.710;2023-02-20T04:40:38;148854.75;;;9.83;100.00
21877;BME280;11103;43.788;23.710;2023-02-20T04:43:04;148818.91;;;9.69;100.00
21877;BME280;11103;43.788;23.710;2023-02-20T04:45:30;148852.16;;;9.82;100.00
21877;BME280;11103;43.788;23.710;2023-02-20T04:47:55;148862.41;;;9.86;100.00
21877;BME280;11103;43.788;23.710;2023-02-20T04:50:28;148864.94;;;9.87;100.00
21877;BME280;11103;43.788;23.710;2023-02-20T04:52:55;148818.91;;;9.69;100.00
21877;BME280;11103;43.788;23.710;2023-02-20T04:55:21;148818.91;;;9.69;100.00
21877;BME280;11103;43.788;23.710;2023-02-20T04:57:47;148867.53;;;9.88;100.00
21877;BME280;11103;43.788;23.710;2023-02-20T05:00:15;148863.72;;;9.86;100.00
21877;BME280;11103;43.788;23.710;2023-02-20T05:02:41;148848.34;;;9.80;100.00
21877;BME280;11103;43.788;23.710;2023-02-20T05:05:25;148836.81;;;9.76;100.00
21877;BME280;11103;43.788;23.710;2023-02-20T05:08:02;148826.59;;;9.72;100.00
21877;BME280;11103;43.788;23.710;2023-02-20T05:10:29;148820.22;;;9.69;100.00
21877;BME280;11103;43.788;23.710;2023-02-20T05:12:56;148813.81;;;9.67;100.00
21877;BME280;11103;43.788;23.710;2023-02-20T05:15:23;148808.72;;;9.65;100.00
21877;BME280;11103;43.788;23.710;2023-02-20T05:17:49;148797.16;;;9.60;100.00
21877;BME280;11103;43.788;23.710;2023-02-20T05:20:15;148806.13;;;9.64;100.00
21877;BME280;11103;43.788;23.710;2023-02-20T05:22:40;148769.03;;;9.49;100.00
21877;BME280;11103;43.788;23.710;2023-02-20T05:25:06;148794.66;;;9.59;100.00
21877;BME280;11103;43.788;23.710;2023-02-20T05:27:32;148795.88;;;9.59;100.00
21877;BME280;11103;43.788;23.710;2023-02-20T05:29:59;148786.97;;;9.56;100.00
21877;BME280;11103;43.788;23.710;2023-02-20T05:32:28;148784.41;;;9.55;100.00
21877;BME280;11103;43.788;23.710;2023-02-20T05:34:54;148784.41;;;9.55;100.00
21877;BME280;11103;43.788;23.710;2023-02-20T05:37:21;148770.31;;;9.49;100.00
21877;BME280;11103;43.788;23.710;2023-02-20T05:39:47;148795.88;;;9.59;100.00
21877;BME280;11103;43.788;23.710;2023-02-20T05:42:14;148824.03;;;9.71;100.00
21877;BME280;11103;43.788;23.710;2023-02-20T05:44:40;148841.97;;;9.78;100.00
21877;BME280;11103;43.788;23.710;2023-02-20T05:47:05;148890.56;;;9.97;100.00
21877;BME280;11103;43.788;23.710;2023-02-20T05:49:34;148921.25;;;10.09;100.00
21877;BME280;11103;43.788;23.710;2023-02-20T05:52:01;148972.47;;;10.29;100.00
21877;BME280;11103;43.788;23.710;2023-02-20T05:54:27;149028.81;;;10.51;100.00
21877;BME280;11103;43.788;23.710;2023-02-20T05:56:54;149001.94;;;10.41;100.00
21877;BME280;11103;43.788;23.710;2023-02-20T05:59:21;149017.25;;;10.47;100.00
21877;BME280;11103;43.788;23.710;2023-02-20T06:01:48;148987.84;;;10.35;100.00
21877;BME280;11103;43.788;23.710;2023-02-20T06:04:17;149021.13;;;10.48;100.00
21877;BME280;11103;43.788;23.710;2023-02-20T06:06:42;149027.50;;;10.51;100.00
21877;BME280;11103;43.788;23.710;2023-02-20T06:09:10;149041.59;;;10.56;100.00
21877;BME280;11103;43.788;23.710;2023-02-20T06:11:36;148998.06;;;10.39;99.92
21877;BME280;11103;43.788;23.710;2023-02-20T06:14:03;148896.97;;;9.99;100.00
21877;BME280;11103;43.788;23.710;2023-02-20T06:16:29;148957.13;;;10.23;100.00
21877;BME280;11103;43.788;23.710;2023-02-20T06:18:56;148972.47;;;10.29;99.92
21877;BME280;11103;43.788;23.710;2023-02-20T06:21:23;148964.81;;;10.26;99.09
21877;BME280;11103;43.788;23.710;2023-02-20T06:23:50;148936.66;;;10.15;98.42
21877;BME280;11103;43.788;23.710;2023-02-20T06:26:17;148921.25;;;10.09;98.25
21877;BME280;11103;43.788;23.710;2023-02-20T06:28:43;148955.84;;;10.23;97.43
21877;BME280;11103;43.788;23.710;2023-02-20T06:31:10;148941.75;;;10.17;96.30
21877;BME280;11103;43.788;23.710;2023-02-20T06:33:36;148927.63;;;10.11;95.77
21877;BME280;11103;43.788;23.710;2023-02-20T06:36:03;148918.72;;;10.08;96.42
21877;BME280;11103;43.788;23.710;2023-02-20T06:38:29;148926.34;;;10.11;98.35
21877;BME280;11103;43.788;23.710;2023-02-20T06:40:54;148917.44;;;10.07;99.09
21877;BME280;11103;43.788;23.710;2023-02-20T06:43:20;148891.81;;;9.97;100.00
21877;BME280;11103;43.788;23.710;2023-02-20T06:45:46;148902.06;;;10.01;100.00
21877;BME280;11103;43.788;23.710;2023-02-20T06:48:12;148893.09;;;9.98;100.00
21877;BME280;11103;43.788;23.710;2023-02-20T06:50:41;148907.16;;;10.03;100.00
21877;BME280;11103;43.788;23.710;2023-02-20T06:53:07;148916.13;;;10.07;100.00
21877;BME280;11103;43.788;23.710;2023-02-20T06:55:32;148941.75;;;10.17;100.00
21877;BME280;11103;43.788;23.710;2023-02-20T06:57:58;148921.25;;;10.09;100.00
21877;BME280;11103;43.788;23.710;2023-02-20T07:00:24;148918.72;;;10.08;100.00
21877;BME280;11103;43.788;23.710;2023-02-20T07:02:49;148916.13;;;10.07;99.38
21877;BME280;11103;43.788;23.710;2023-02-20T07:05:15;148925.09;;;10.10;97.97
21877;BME280;11103;43.788;23.710;2023-02-20T07:07:40;148930.25;;;10.12;96.73
21877;BME280;11103;43.788;23.710;2023-02-20T07:10:06;148966.09;;;10.27;96.38
21877;BME280;11103;43.788;23.710;2023-02-20T07:12:32;148984.00;;;10.34;94.57
21877;BME280;11103;43.788;23.710;2023-02-20T07:14:58;148998.06;;;10.39;93.25
21877;BME280;11103;43.788;23.710;2023-02-20T07:17:24;148984.00;;;10.34;91.91
21877;BME280;11103;43.788;23.710;2023-02-20T07:19:50;148995.50;;;10.38;89.99
21877;BME280;11103;43.788;23.710;2023-02-20T07:22:16;149051.81;;;10.60;89.26
21877;BME280;11103;43.788;23.710;2023-02-20T07:24:42;149095.34;;;10.77;87.47
21877;BME280;11103;43.788;23.710;2023-02-20T07:27:08;149172.16;;;11.08;86.15
21877;BME280;11103;43.788;23.710;2023-02-20T07:29:35;149202.88;;;11.20;81.80
21877;BME280;11103;43.788;23.710;2023-02-20T07:32:01;149245.13;;;11.36;79.66
21877;BME280;11103;43.788;23.710;2023-02-20T07:34:26;149269.50;;;11.46;78.48
21877;BME280;11103;43.788;23.710;2023-02-20T07:36:52;149297.69;;;11.57;77.72
21877;BME280;11103;43.788;23.710;2023-02-20T07:39:17;149246.41;;;11.37;77.17
21877;BME280;11103;43.788;23.710;2023-02-20T07:41:42;149241.31;;;11.35;77.21
21877;BME280;11103;43.788;23.710;2023-02-20T07:44:09;149208.03;;;11.22;77.21
21877;BME280;11103;43.788;23.710;2023-02-20T07:46:34;149218.25;;;11.26;78.17
21877;BME280;11103;43.788;23.710;2023-02-20T07:49:01;149205.44;;;11.21;78.01
21877;BME280;11103;43.788;23.710;2023-02-20T07:51:27;149215.72;;;11.25;77.92
21877;BME280;11103;43.788;23.710;2023-02-20T07:53:52;149182.38;;;11.12;77.96
21877;BME280;11103;43.788;23.710;2023-02-20T07:56:19;149168.28;;;11.06;77.89
21877;BME280;11103;43.788;23.710;2023-02-20T07:58:46;149178.56;;;11.10;79.18
21877;BME280;11103;43.788;23.710;2023-02-20T08:01:11;149129.91;;;10.91;78.92
21877;BME280;11103;43.788;23.710;2023-02-20T08:03:37;149118.41;;;10.87;79.29
21877;BME280;11103;43.788;23.710;2023-02-20T08:06:02;149099.16;;;10.79;79.80
21877;BME280;11103;43.788;23.710;2023-02-20T08:08:28;149132.47;;;10.92;80.47
21877;BME280;11103;43.788;23.710;2023-02-20T08:10:53;149123.50;;;10.89;78.88
21877;BME280;11103;43.788;23.710;2023-02-20T08:13:19;149195.22;;;11.17;77.68
21877;BME280;11103;43.788;23.710;2023-02-20T08:15:44;149210.56;;;11.23;75.57
21877;BME280;11103;43.788;23.710;2023-02-20T08:18:10;149205.44;;;11.21;72.78
21877;BME280;11103;43.788;23.710;2023-02-20T08:20:36;149193.94;;;11.16;72.62
21877;BME280;11103;43.788;23.710;2023-02-20T08:23:01;149233.63;;;11.32;72.62
21877;BME280;11103;43.788;23.710;2023-02-20T08:25:29;149249.00;;;11.38;72.17
21877;BME280;11103;43.788;23.710;2023-02-20T08:27:55;149264.34;;;11.44;71.42
21877;BME280;11103;43.788;23.710;2023-02-20T08:30:26;149261.81;;;11.43;69.92
21877;BME280;11103;43.788;23.710;2023-02-20T08:32:53;149245.13;;;11.36;69.14
21877;BME280;11103;43.788;23.710;2023-02-20T08:35:20;149259.22;;;11.42;68.53
21877;BME280;11103;43.788;23.710;2023-02-20T08:37:47;149243.84;;;11.36;68.14
21877;BME280;11103;43.788;23.710;2023-02-20T08:40:13;149250.28;;;11.39;67.16
21877;BME280;11103;43.788;23.710;2023-02-20T08:42:38;149249.00;;;11.38;67.21
21877;BME280;11103;43.788;23.710;2023-02-20T08:45:05;149241.31;;;11.35;65.74
21877;BME280;11103;43.788;23.710;2023-02-20T08:47:31;149241.31;;;11.35;64.80
21877;BME280;11103;43.788;23.710;2023-02-20T08:49:57;149288.69;;;11.54;66.11
21877;BME280;11103;43.788;23.710;2023-02-20T08:52:22;149328.44;;;11.69;65.17
21877;BME280;11103;43.788;23.710;2023-02-20T08:54:47;149346.41;;;11.76;64.64
21877;BME280;11103;43.788;23.710;2023-02-20T08:57:14;149343.84;;;11.75;63.04
21877;BME280;11103;43.788;23.710;2023-02-20T08:59:40;149337.44;;;11.73;63.44
21877;BME280;11103;43.788;23.710;2023-02-20T09:02:06;149360.50;;;11.82;62.78
21877;BME280;11103;43.788;23.710;2023-02-20T09:04:32;149350.22;;;11.78;60.86
21877;BME280;11103;43.788;23.710;2023-02-20T09:06:57;149375.84;;;11.88;60.59
21877;BME280;11103;43.788;23.710;2023-02-20T09:09:23;149366.91;;;11.84;59.40
21877;BME280;11103;43.788;23.710;2023-02-20T09:11:48;149352.81;;;11.79;59.08
21877;BME280;11103;43.788;23.710;2023-02-20T09:14:14;149391.22;;;11.94;58.91
21877;BME280;11103;43.788;23.710;2023-02-20T09:16:40;149434.81;;;12.11;58.91
21877;BME280;11103;43.788;23.710;2023-02-20T09:19:09;149473.25;;;12.26;58.83
21877;BME280;11103;43.788;23.710;2023-02-20T09:21:34;149484.81;;;12.31;56.61
21877;BME280;11103;43.788;23.710;2023-02-20T09:24:00;149468.13;;;12.24;55.93
21877;BME280;11103;43.788;23.710;2023-02-20T09:26:26;149456.63;;;12.20;55.36
21877;BME280;11103;43.788;23.710;2023-02-20T09:28:51;149468.13;;;12.24;55.37
21877;BME280;11103;43.788;23.710;2023-02-20T09:31:17;149448.91;;;12.17;55.08
21877;BME280;11103;43.788;23.710;2023-02-20T09:33:46;149438.63;;;12.13;54.17
21877;BME280;11103;43.788;23.710;2023-02-20T09:36:12;149427.13;;;12.08;54.73
21877;BME280;11103;43.788;23.710;2023-02-20T09:38:37;149351.53;;;11.78;55.87
21877;BME280;11103;43.788;23.710;2023-02-20T09:41:03;149418.13;;;12.05;56.87
21877;BME280;11103;43.788;23.710;2023-02-20T09:46:20;149455.31;;;12.19;58.55
21877;BME280;11103;43.788;23.710;2023-02-20T09:49:03;149455.31;;;12.19;58.59
21877;BME280;11103;43.788;23.710;2023-02-20T09:51:37;149459.16;;;12.21;58.70
21877;BME280;11103;43.788;23.710;2023-02-20T09:54:13;149492.47;;;12.34;57.92
21877;BME280;11103;43.788;23.710;2023-02-20T09:56:50;149443.81;;;12.15;57.90
21877;BME280;11103;43.788;23.710;2023-02-20T09:59:27;149469.44;;;12.25;58.34
21877;BME280;11103;43.788;23.710;2023-02-20T10:02:15;149523.25;;;12.46;59.57
21877;BME280;11103;43.788;23.710;2023-02-20T10:04:45;149510.44;;;12.41;58.27
21877;BME280;11103;43.788;23.710;2023-02-20T10:07:27;149502.75;;;12.38;58.75
21877;BME280;11103;43.788;23.710;2023-02-20T10:09:53;149524.53;;;12.46;58.64
21877;BME280;11103;43.788;23.710;2023-02-20T10:12:36;149565.56;;;12.63;58.46
21877;BME280;11103;43.788;23.710;2023-02-20T10:25:49;149646.34;;;12.94;57.98
21877;BME280;11103;43.788;23.710;2023-02-20T10:28:17;149620.69;;;12.84;57.55
21877;BME280;11103;43.788;23.710;2023-02-20T10:30:47;149661.75;;;13.00;57.17
21877;BME280;11103;43.788;23.710;2023-02-20T10:33:29;149637.38;;;12.91;56.71
21877;BME280;11103;43.788;23.710;2023-02-20T10:38:52;149642.50;;;12.93;56.01
21877;BME280;11103;43.788;23.710;2023-02-20T10:43:58;149671.97;;;13.04;57.08
21877;BME280;11103;43.788;23.710;2023-02-20T10:46:35;149671.97;;;13.04;56.29
21877;BME280;11103;43.788;23.710;2023-02-20T10:49:10;149673.25;;;13.05;55.30
21877;BME280;11103;43.788;23.710;2023-02-20T10:51:45;149677.13;;;13.06;54.88
21877;BME280;11103;43.788;23.710;2023-02-20T10:54:21;149682.31;;;13.08;55.48
21877;BME280;11103;43.788;23.710;2023-02-20T10:59:38;149690.00;;;13.11;55.01
21877;BME280;11103;43.788;23.710;2023-02-20T11:02:15;149682.31;;;13.08;55.49
21877;BME280;11103;43.788;23.710;2023-02-20T11:04:47;149682.31;;;13.08;55.28
21877;BME280;11103;43.788;23.710;2023-02-20T11:07:16;149665.56;;;13.02;54.84
21877;BME280;11103;43.788;23.710;2023-02-20T11:09:44;149692.59;;;13.13;54.77
21877;BME280;11103;43.788;23.710;2023-02-20T11:12:22;149693.84;;;13.13;54.46
21877;BME280;11103;43.788;23.710;2023-02-20T11:14:50;149702.81;;;13.17;53.75
21877;BME280;11103;43.788;23.710;2023-02-20T11:17:23;149697.72;;;13.15;52.24
21877;BME280;11103;43.788;23.710;2023-02-20T11:19:58;149696.41;;;13.14;52.03
21877;BME280;11103;43.788;23.710;2023-02-20T11:22:46;149700.25;;;13.16;52.08
21877;BME280;11103;43.788;23.710;2023-02-20T11:25:20;149700.25;;;13.16;52.10
21877;BME280;11103;43.788;23.710;2023-02-20T11:27:49;149697.72;;;13.15;52.02
21877;BME280;11103;43.788;23.710;2023-02-20T11:35:30;149648.91;;;12.95;51.40
21877;BME280;11103;43.788;23.710;2023-02-20T11:43:25;149710.53;;;13.20;51.13
21877;BME280;11103;43.788;23.710;2023-02-20T11:49:03;149774.69;;;13.45;50.53
21877;BME280;11103;43.788;23.710;2023-02-20T11:51:36;149786.22;;;13.49;49.48
21877;BME280;11103;43.788;23.710;2023-02-20T11:54:21;149760.56;;;13.39;48.43
21877;BME280;11103;43.788;23.710;2023-02-20T11:57:00;149841.41;;;13.71;49.20
21877;BME280;11103;43.788;23.710;2023-02-20T11:59:47;149858.09;;;13.78;48.64
21877;BME280;11103;43.788;23.710;2023-02-20T12:02:21;149869.63;;;13.82;48.78
21877;BME280;11103;43.788;23.710;2023-02-20T12:07:32;149818.28;;;13.62;46.74
21877;BME280;11103;43.788;23.710;2023-02-20T12:10:02;149854.22;;;13.76;46.62
21877;BME280;11103;43.788;23.710;2023-02-20T12:12:31;149846.53;;;13.73;45.57
21877;BME280;11103;43.788;23.710;2023-02-20T12:14:57;149797.75;;;13.54;45.53
21877;BME280;11103;43.788;23.710;2023-02-20T12:20:13;149831.09;;;13.67;44.64
21877;BME280;11103;43.788;23.710;2023-02-20T12:22:48;149805.47;;;13.57;43.97
21877;BME280;11103;43.788;23.710;2023-02-20T12:39:36;149919.72;;;14.02;43.65
21877;BME280;11103;43.788;23.710;2023-02-20T12:47:39;149956.91;;;14.16;42.90
21877;BME280;11103;43.788;23.710;2023-02-20T12:55:53;150000.63;;;14.34;41.84
21877;BME280;11103;43.788;23.710;2023-02-20T12:58:58;150017.34;;;14.40;42.54
21877;BME280;11103;43.788;23.710;2023-02-20T13:01:28;149981.31;;;14.26;41.25
21877;BME280;11103;43.788;23.710;2023-02-20T13:11:41;150064.84;;;14.59;41.45
21877;BME280;11103;43.788;23.710;2023-02-20T13:14:16;150085.41;;;14.67;40.88
21877;BME280;11103;43.788;23.710;2023-02-20T13:19:51;150066.13;;;14.59;39.50
21877;BME280;11103;43.788;23.710;2023-02-20T13:22:19;150049.44;;;14.53;39.82
21877;BME280;11103;43.788;23.710;2023-02-20T13:24:45;150052.00;;;14.54;39.61
21877;BME280;11103;43.788;23.710;2023-02-20T13:27:31;150087.94;;;14.68;40.45
21877;BME280;11103;43.788;23.710;2023-02-20T13:29:59;150100.81;;;14.73;40.44
21877;BME280;11103;43.788;23.710;2023-02-20T13:32:31;150093.09;;;14.70;40.36
21877;BME280;11103;43.788;23.710;2023-02-20T13:38:11;150123.91;;;14.82;40.84
21877;BME280;11103;43.788;23.710;2023-02-20T13:40:40;150134.22;;;14.86;40.97
21877;BME280;11103;43.788;23.710;2023-02-20T13:45:45;150102.06;;;14.73;38.82
21877;BME280;11103;43.788;23.710;2023-02-20T13:56:29;150131.63;;;14.85;40.84
21877;BME280;11103;43.788;23.710;2023-02-20T13:59:12;150108.47;;;14.76;41.59
21877;BME280;11103;43.788;23.710;2023-02-20T14:01:56;150089.22;;;14.68;41.41
21877;BME280;11103;43.788;23.710;2023-02-20T14:04:22;150085.41;;;14.67;42.18
21877;BME280;11103;43.788;23.710;2023-02-20T14:06:50;150073.81;;;14.62;43.07
21877;BME280;11103;43.788;23.710;2023-02-20T14:09:20;150064.84;;;14.59;42.36
21877;BME280;11103;43.788;23.710;2023-02-20T14:11:48;150036.59;;;14.48;43.17
21877;BME280;11103;43.788;23.710;2023-02-20T14:14:39;150032.72;;;14.46;44.18
21877;BME280;11103;43.788;23.710;2023-02-20T14:17:18;150055.84;;;14.55;44.76
21877;BME280;11103;43.788;23.710;2023-02-20T14:19:46;150078.97;;;14.64;45.06
21877;BME280;11103;43.788;23.710;2023-02-20T14:24:43;150049.44;;;14.53;46.46
21877;BME280;11103;43.788;23.710;2023-02-20T14:27:28;150085.41;;;14.67;47.49
21877;BME280;11103;43.788;23.710;2023-02-20T14:32:35;150034.00;;;14.47;45.75
21877;BME280;11103;43.788;23.710;2023-02-20T14:40:45;149937.66;;;14.09;47.20
21877;BME280;11103;43.788;23.710;2023-02-20T14:43:20;149942.78;;;14.11;48.09
21877;BME280;11103;43.788;23.710;2023-02-20T14:45:56;149950.50;;;14.14;48.35
21877;BME280;11103;43.788;23.710;2023-02-20T14:48:26;149949.19;;;14.13;48.60
21877;BME280;11103;43.788;23.710;2023-02-20T14:51:24;149932.53;;;14.07;49.71
21877;BME280;11103;43.788;23.710;2023-02-20T14:56:38;149838.81;;;13.70;50.86
21877;BME280;11103;43.788;23.710;2023-02-20T14:59:22;149836.28;;;13.69;51.30
21877;BME280;11103;43.788;23.710;2023-02-20T15:01:52;149795.22;;;13.53;51.12
21877;BME280;11103;43.788;23.710;2023-02-20T15:04:20;149754.16;;;13.37;50.96